sensor_id;sensor_type;location;lat;lon;timestamp;pressure;altitude;pressure_sealevel;temperature;humidity
31337;BME280;22846;42.654;23.314;2023-06-14T00:01:40;94235.31;;;26.18;61.43
31337;BME280;22846;42.654;23.314;2023-06-14T00:04:06;94234.56;;;26.17;61.51
31337;BME280;22846;42.654;23.314;2023-06-14T00:06:34;94240.03;;;26.17;61.63
31337;BME280;22846;42.654;23.314;2023-06-14T00:08:59;94234.56;;;26.17;61.48
31337;BME280;22846;42.654;23.314;2023-06-14T00:11:24;94232.59;;;26.18;61.76
31337;BME280;22846;42.654;23.314;2023-06-14T00:13:52;94227.09;;;26.18;61.63
31337;BME280;22846;42.654;23.314;2023-06-14T00:16:17;94224.38;;;26.18;61.69
31337;BME280;22846;42.654;23.314;2023-06-14T00:18:44;94237.28;;;26.17;61.67
31337;BME280;22846;42.654;23.314;2023-06-14T00:21:11;94222.06;;;26.16;61.82
31337;BME280;22846;42.654;23.314;2023-06-14T00:23:37;94216.59;;;26.16;61.57
31337;BME280;22846;42.654;23.314;2023-06-14T00:26:03;94211.88;;;26.17;61.97
31337;BME280;22846;42.654;23.314;2023-06-14T00:28:28;94220.84;;;26.17;61.89
31337;BME280;22846;42.654;23.314;2023-06-14T00:30:54;94220.53;;;26.15;62.11
31337;BME280;22846;42.654;23.314;2023-06-14T00:33:19;94216.59;;;26.16;62.02
31337;BME280;22846;42.654;23.314;2023-06-14T00:35:45;94218.88;;;26.18;61.69
31337;BME280;22846;42.654;23.314;2023-06-14T00:38:10;94216.59;;;26.16;61.78
31337;BME280;22846;42.654;23.314;2023-06-14T00:40:35;94208.38;;;26.16;62.15
31337;BME280;22846;42.654;23.314;2023-06-14T00:43:01;94216.59;;;26.16;61.85
31337;BME280;22846;42.654;23.314;2023-06-14T00:45:26;94211.13;;;26.16;61.84
31337;BME280;22846;42.654;23.314;2023-06-14T00:47:52;94208.38;;;26.16;62.12
31337;BME280;22846;42.654;23.314;2023-06-14T00:50:20;94208.38;;;26.16;61.91
31337;BME280;22846;42.654;23.314;2023-06-14T00:52:46;94211.13;;;26.16;62.04
31337;BME280;22846;42.654;23.314;2023-06-14T00:55:12;94202.91;;;26.16;62.11
31337;BME280;22846;42.654;23.314;2023-06-14T00:57:38;94201.84;;;26.14;62.11
31337;BME280;22846;42.654;23.314;2023-06-14T01:00:05;94200.16;;;26.16;62.00
31337;BME280;22846;42.654;23.314;2023-06-14T01:02:37;94204.88;;;26.16;62.24
31337;BME280;22846;42.654;23.314;2023-06-14T01:05:03;94190.41;;;26.15;62.17
31337;BME280;22846;42.654;23.314;2023-06-14T01:07:51;94199.84;;;26.14;62.18
31337;BME280;22846;42.654;23.314;2023-06-14T01:10:53;94206.09;;;26.15;62.56
31337;BME280;22846;42.654;23.314;2023-06-14T01:15:52;94199.84;;;26.14;62.41
31337;BME280;22846;42.654;23.314;2023-06-14T01:18:19;94205.31;;;26.14;62.36
31337;BME280;22846;42.654;23.314;2023-06-14T01:20:46;94201.09;;;26.13;62.24
31337;BME280;22846;42.654;23.314;2023-06-14T01:23:19;94204.56;;;26.14;62.28
31337;BME280;22846;42.654;23.314;2023-06-14T01:25:45;94201.09;;;26.13;62.41
31337;BME280;22846;42.654;23.314;2023-06-14T01:28:13;94203.84;;;26.13;62.48
31337;BME280;22846;42.654;23.314;2023-06-14T01:30:44;94203.38;;;26.15;62.20
31337;BME280;22846;42.654;23.314;2023-06-14T01:33:14;94204.56;;;26.14;62.27
31337;BME280;22846;42.654;23.314;2023-06-14T01:35:44;94202.59;;;26.14;62.12
31337;BME280;22846;42.654;23.314;2023-06-14T01:38:10;94198.63;;;26.15;62.41
31337;BME280;22846;42.654;23.314;2023-06-14T01:40:36;94199.84;;;26.14;62.17
31337;BME280;22846;42.654;23.314;2023-06-14T01:43:02;94195.63;;;26.13;62.12
31337;BME280;22846;42.654;23.314;2023-06-14T01:45:29;94206.56;;;26.13;62.51
31337;BME280;22846;42.654;23.314;2023-06-14T01:47:54;94207.31;;;26.14;62.17
31337;BME280;22846;42.654;23.314;2023-06-14T01:50:20;94197.88;;;26.15;62.15
31337;BME280;22846;42.654;23.314;2023-06-14T01:52:45;94199.41;;;26.16;62.30
31337;BME280;22846;42.654;23.314;2023-06-14T01:55:11;94197.09;;;26.14;62.48
31337;BME280;22846;42.654;23.314;2023-06-14T01:57:36;94206.09;;;26.15;62.22
31337;BME280;22846;42.654;23.314;2023-06-14T02:00:03;94203.53;;;26.11;62.43
31337;BME280;22846;42.654;23.314;2023-06-14T02:02:29;94213.53;;;26.14;62.45
31337;BME280;22846;42.654;23.314;2023-06-14T02:04:54;94213.53;;;26.14;62.30
31337;BME280;22846;42.654;23.314;2023-06-14T02:07:22;94219.78;;;26.15;62.27
31337;BME280;22846;42.654;23.314;2023-06-14T02:09:48;94216.28;;;26.14;62.34
31337;BME280;22846;42.654;23.314;2023-06-14T02:12:13;94226.03;;;26.15;62.63
31337;BME280;22846;42.654;23.314;2023-06-14T02:14:39;94222.69;;;26.11;62.51
31337;BME280;22846;42.654;23.314;2023-06-14T02:17:04;94227.22;;;26.14;62.53
31337;BME280;22846;42.654;23.314;2023-06-14T02:19:31;94229.97;;;26.14;62.60
31337;BME280;22846;42.654;23.314;2023-06-14T02:21:57;94227.22;;;26.14;62.61
31337;BME280;22846;42.654;23.314;2023-06-14T02:24:22;94232.72;;;26.14;62.80
31337;BME280;22846;42.654;23.314;2023-06-14T02:26:49;94237.91;;;26.12;62.54
31337;BME280;22846;42.654;23.314;2023-06-14T02:29:14;94234.25;;;26.15;62.69
31337;BME280;22846;42.654;23.314;2023-06-14T02:31:41;94233.19;;;26.13;62.76
31337;BME280;22846;42.654;23.314;2023-06-14T02:34:06;94229.97;;;26.14;62.72
31337;BME280;22846;42.654;23.314;2023-06-14T02:36:34;94236.69;;;26.13;62.47
31337;BME280;22846;42.654;23.314;2023-06-14T02:39:00;94237.44;;;26.14;62.45
31337;BME280;22846;42.654;23.314;2023-06-14T02:41:26;94238.19;;;26.14;62.59
31337;BME280;22846;42.654;23.314;2023-06-14T02:43:52;94234.72;;;26.14;62.92
31337;BME280;22846;42.654;23.314;2023-06-14T02:46:18;94235.44;;;26.14;62.72
31337;BME280;22846;42.654;23.314;2023-06-14T02:48:43;94231.97;;;26.14;62.87
31337;BME280;22846;42.654;23.314;2023-06-14T02:51:09;94229.69;;;26.12;62.67
31337;BME280;22846;42.654;23.314;2023-06-14T02:53:35;94235.19;;;26.12;62.71
31337;BME280;22846;42.654;23.314;2023-06-14T02:56:02;94240.19;;;26.14;62.92
31337;BME280;22846;42.654;23.314;2023-06-14T02:58:29;94233.97;;;26.13;62.95
31337;BME280;22846;42.654;23.314;2023-06-14T03:00:54;94233.97;;;26.13;62.75
31337;BME280;22846;42.654;23.314;2023-06-14T03:03:20;94242.19;;;26.13;62.69
31337;BME280;22846;42.654;23.314;2023-06-14T03:05:47;94240.19;;;26.14;62.76
31337;BME280;22846;42.654;23.314;2023-06-14T03:08:17;94242.91;;;26.14;62.87
31337;BME280;22846;42.654;23.314;2023-06-14T03:10:47;94248.88;;;26.12;62.73
31337;BME280;22846;42.654;23.314;2023-06-14T03:13:14;94246.13;;;26.12;63.00
31337;BME280;22846;42.654;23.314;2023-06-14T03:15:43;94245.34;;;26.12;62.60
31337;BME280;22846;42.654;23.314;2023-06-14T03:18:10;94255.09;;;26.13;62.66
31337;BME280;22846;42.654;23.314;2023-06-14T03:20:37;94250.09;;;26.11;62.29
31337;BME280;22846;42.654;23.314;2023-06-14T03:23:04;94251.59;;;26.12;62.79
31337;BME280;22846;42.654;23.314;2023-06-14T03:25:30;94243.38;;;26.12;62.84
31337;BME280;22846;42.654;23.314;2023-06-14T03:27:56;94243.38;;;26.12;62.62
31337;BME280;22846;42.654;23.314;2023-06-14T03:30:22;94255.88;;;26.13;62.88
31337;BME280;22846;42.654;23.314;2023-06-14T03:32:47;94253.88;;;26.14;62.72
31337;BME280;22846;42.654;23.314;2023-06-14T03:35:12;94262.84;;;26.14;62.75
31337;BME280;22846;42.654;23.314;2023-06-14T03:37:43;94260.56;;;26.13;62.85
31337;BME280;22846;42.654;23.314;2023-06-14T03:40:10;94260.56;;;26.13;62.65
31337;BME280;22846;42.654;23.314;2023-06-14T03:42:36;94262.84;;;26.14;62.74
31337;BME280;22846;42.654;23.314;2023-06-14T03:45:01;94258.59;;;26.13;62.79
31337;BME280;22846;42.654;23.314;2023-06-14T03:47:27;94260.09;;;26.14;62.85
31337;BME280;22846;42.654;23.314;2023-06-14T03:49:52;94266.81;;;26.13;62.79
31337;BME280;22846;42.654;23.314;2023-06-14T03:52:18;94262.09;;;26.14;62.89
31337;BME280;22846;42.654;23.314;2023-06-14T03:54:43;94269.09;;;26.15;63.03
31337;BME280;22846;42.654;23.314;2023-06-14T03:57:09;94268.31;;;26.14;62.85
31337;BME280;22846;42.654;23.314;2023-06-14T03:59:35;94265.31;;;26.12;62.56
31337;BME280;22846;42.654;23.314;2023-06-14T04:02:02;94275.03;;;26.13;62.80
31337;BME280;22846;42.654;23.314;2023-06-14T04:04:27;94270.31;;;26.14;62.72
31337;BME280;22846;42.654;23.314;2023-06-14T04:06:57;94266.50;;;26.11;62.99
31337;BME280;22846;42.654;23.314;2023-06-14T04:09:26;94269.56;;;26.13;62.84
31337;BME280;22846;42.654;23.314;2023-06-14T04:11:53;94262.09;;;26.14;62.82
31337;BME280;22846;42.654;23.314;2023-06-14T04:14:19;94268.31;;;26.14;63.09
31337;BME280;22846;42.654;23.314;2023-06-14T04:16:46;94264.09;;;26.13;62.71
31337;BME280;22846;42.654;23.314;2023-06-14T04:19:11;94267.09;;;26.15;62.60
31337;BME280;22846;42.654;23.314;2023-06-14T04:21:37;94261.63;;;26.15;62.52
31337;BME280;22846;42.654;23.314;2023-06-14T04:24:03;94269.84;;;26.15;62.93
31337;BME280;22846;42.654;23.314;2023-06-14T04:26:28;94269.84;;;26.15;62.62
31337;BME280;22846;42.654;23.314;2023-06-14T04:28:57;94269.84;;;26.15;62.69
31337;BME280;22846;42.654;23.314;2023-06-14T04:31:28;94268.63;;;26.16;62.83
31337;BME280;22846;42.654;23.314;2023-06-14T04:33:55;94269.41;;;26.17;63.01
31337;BME280;22846;42.654;23.314;2023-06-14T04:36:20;94266.19;;;26.18;62.83
31337;BME280;22846;42.654;23.314;2023-06-14T04:38:46;94266.19;;;26.18;63.03
31337;BME280;22846;42.654;23.314;2023-06-14T04:41:12;94273.19;;;26.19;62.76
31337;BME280;22846;42.654;23.314;2023-06-14T04:43:37;94267.72;;;26.19;62.86
31337;BME280;22846;42.654;23.314;2023-06-14T04:46:06;94263.00;;;26.20;62.95
31337;BME280;22846;42.654;23.314;2023-06-14T04:48:40;94269.69;;;26.19;62.63
31337;BME280;22846;42.654;23.314;2023-06-14T04:51:08;94270.31;;;26.23;62.81
31337;BME280;22846;42.654;23.314;2023-06-14T04:53:35;94276.25;;;26.21;62.76
31337;BME280;22846;42.654;23.314;2023-06-14T04:56:00;94277.78;;;26.22;62.07
31337;BME280;22846;42.654;23.314;2023-06-14T04:58:27;94276.25;;;26.21;62.08
31337;BME280;22846;42.654;23.314;2023-06-14T05:00:54;94280.81;;;26.24;62.90
31337;BME280;22846;42.654;23.314;2023-06-14T05:03:21;94285.06;;;26.25;63.04
31337;BME280;22846;42.654;23.314;2023-06-14T05:05:49;94291.31;;;26.26;62.41
31337;BME280;22846;42.654;23.314;2023-06-14T05:08:15;94279.44;;;26.29;62.22
31337;BME280;22846;42.654;23.314;2023-06-14T05:10:41;94287.22;;;26.30;61.87
31337;BME280;22846;42.654;23.314;2023-06-14T05:13:06;94281.25;;;26.32;62.42
31337;BME280;22846;42.654;23.314;2023-06-14T05:15:32;94281.56;;;26.34;62.60
31337;BME280;22846;42.654;23.314;2023-06-14T05:17:57;94281.41;;;26.37;62.39
31337;BME280;22846;42.654;23.314;2023-06-14T05:20:23;94288.44;;;26.38;62.46
31337;BME280;22846;42.654;23.314;2023-06-14T05:22:53;94294.22;;;26.40;62.48
31337;BME280;22846;42.654;23.314;2023-06-14T05:25:19;94303.53;;;26.43;62.57
31337;BME280;22846;42.654;23.314;2023-06-14T05:27:46;94301.06;;;26.45;62.50
31337;BME280;22846;42.654;23.314;2023-06-14T05:30:12;94306.84;;;26.47;62.30
31337;BME280;22846;42.654;23.314;2023-06-14T05:32:38;94309.16;;;26.48;62.11
31337;BME280;22846;42.654;23.314;2023-06-14T05:35:03;94312.19;;;26.50;62.50
31337;BME280;22846;42.654;23.314;2023-06-14T05:37:29;94306.69;;;26.50;62.40
31337;BME280;22846;42.654;23.314;2023-06-14T05:39:56;94305.47;;;26.51;62.67
31337;BME280;22846;42.654;23.314;2023-06-14T05:42:21;94308.22;;;26.51;62.99
31337;BME280;22846;42.654;23.314;2023-06-14T05:44:46;94314.63;;;26.48;58.92
31337;BME280;22846;42.654;23.314;2023-06-14T05:47:12;94305.47;;;26.33;51.91
31337;BME280;22846;42.654;23.314;2023-06-14T05:49:37;94315.81;;;26.20;49.87
31337;BME280;22846;42.654;23.314;2023-06-14T05:52:03;94318.69;;;25.99;49.80
31337;BME280;22846;42.654;23.314;2023-06-14T05:54:28;94322.59;;;25.80;50.48
31337;BME280;22846;42.654;23.314;2023-06-14T05:56:53;94322.06;;;25.63;50.06
31337;BME280;22846;42.654;23.314;2023-06-14T05:59:19;94318.72;;;25.51;50.45
31337;BME280;22846;42.654;23.314;2023-06-14T06:01:45;94316.09;;;25.38;50.30
31337;BME280;22846;42.654;23.314;2023-06-14T06:04:11;94319.22;;;25.28;50.88
31337;BME280;22846;42.654;23.314;2023-06-14T06:06:37;94323.44;;;25.20;50.58
31337;BME280;22846;42.654;23.314;2023-06-14T06:09:02;94317.59;;;25.09;50.40
31337;BME280;22846;42.654;23.314;2023-06-14T06:11:28;94328.22;;;25.07;51.20
31337;BME280;22846;42.654;23.314;2023-06-14T06:13:53;94320.09;;;24.94;50.95
31337;BME280;22846;42.654;23.314;2023-06-14T06:16:18;94326.28;;;24.86;51.45
31337;BME280;22846;42.654;23.314;2023-06-14T06:18:44;94326.66;;;24.76;51.87
31337;BME280;22846;42.654;23.314;2023-06-14T06:21:09;94327.25;;;24.71;52.09
31337;BME280;22846;42.654;23.314;2023-06-14T06:23:35;94331.88;;;24.61;52.49
31337;BME280;22846;42.654;23.314;2023-06-14T06:26:00;94309.56;;;24.41;52.25
31337;BME280;22846;42.654;23.314;2023-06-14T06:28:26;94339.88;;;24.56;52.26
31337;BME280;22846;42.654;23.314;2023-06-14T06:30:51;94336.66;;;24.48;52.42
31337;BME280;22846;42.654;23.314;2023-06-14T06:33:17;94335.28;;;24.44;52.23
31337;BME280;22846;42.654;23.314;2023-06-14T06:35:42;94334.22;;;24.50;53.67
31337;BME280;22846;42.654;23.314;2023-06-14T06:38:08;94342.81;;;24.61;54.46
31337;BME280;22846;42.654;23.314;2023-06-14T06:40:35;94336.66;;;24.70;55.60
31337;BME280;22846;42.654;23.314;2023-06-14T06:43:02;94337.47;;;24.79;55.97
31337;BME280;22846;42.654;23.314;2023-06-14T06:45:27;94326.72;;;24.84;55.57
31337;BME280;22846;42.654;23.314;2023-06-14T06:47:53;94343.09;;;25.06;56.37
31337;BME280;22846;42.654;23.314;2023-06-14T06:50:18;94341.97;;;25.16;56.01
31337;BME280;22846;42.654;23.314;2023-06-14T06:52:45;94339.28;;;25.25;56.25
31337;BME280;22846;42.654;23.314;2023-06-14T06:55:10;94340.06;;;25.34;56.23
31337;BME280;22846;42.654;23.314;2023-06-14T06:57:36;94341.44;;;25.39;56.46
31337;BME280;22846;42.654;23.314;2023-06-14T07:00:02;94347.28;;;25.50;56.33
31337;BME280;22846;42.654;23.314;2023-06-14T07:02:29;94348.19;;;25.56;56.75
31337;BME280;22846;42.654;23.314;2023-06-14T07:04:56;94344.88;;;25.61;56.93
31337;BME280;22846;42.654;23.314;2023-06-14T07:07:21;94336.53;;;25.64;56.65
31337;BME280;22846;42.654;23.314;2023-06-14T07:09:47;94343.72;;;25.70;56.80
31337;BME280;22846;42.654;23.314;2023-06-14T07:12:12;94343.44;;;25.77;56.45
31337;BME280;22846;42.654;23.314;2023-06-14T07:14:38;94339.03;;;25.80;56.95
31337;BME280;22846;42.654;23.314;2023-06-14T07:17:04;94346.22;;;25.86;56.46
31337;BME280;22846;42.654;23.314;2023-06-14T07:19:29;94341.34;;;25.90;56.77
31337;BME280;22846;42.654;23.314;2023-06-14T07:21:55;94339.97;;;25.95;56.76
31337;BME280;22846;42.654;23.314;2023-06-14T07:24:21;94338.59;;;25.99;57.68
31337;BME280;22846;42.654;23.314;2023-06-14T07:26:46;94338.47;;;26.03;57.16
31337;BME280;22846;42.654;23.314;2023-06-14T07:29:13;94337.56;;;26.06;57.28
31337;BME280;22846;42.654;23.314;2023-06-14T07:31:38;94334.22;;;26.11;57.38
31337;BME280;22846;42.654;23.314;2023-06-14T07:34:04;94338.47;;;26.12;57.34
31337;BME280;22846;42.654;23.314;2023-06-14T07:36:29;94336.50;;;26.12;57.50
31337;BME280;22846;42.654;23.314;2023-06-14T07:38:55;94332.41;;;26.17;57.34
31337;BME280;22846;42.654;23.314;2023-06-14T07:41:21;94329.94;;;26.19;57.36
31337;BME280;22846;42.654;23.314;2023-06-14T07:43:46;94333.78;;;26.21;57.11
31337;BME280;22846;42.654;23.314;2023-06-14T07:46:11;94333.78;;;26.21;55.11
31337;BME280;22846;42.654;23.314;2023-06-14T07:48:37;94336.78;;;26.14;51.75
31337;BME280;22846;42.654;23.314;2023-06-14T07:51:02;94335.41;;;26.01;49.79
31337;BME280;22846;42.654;23.314;2023-06-14T07:53:28;94340.59;;;25.90;50.19
31337;BME280;22846;42.654;23.314;2023-06-14T07:55:56;94331.13;;;25.82;50.26
31337;BME280;22846;42.654;23.314;2023-06-14T07:58:21;94330.81;;;25.80;52.82
31337;BME280;22846;42.654;23.314;2023-06-14T08:00:47;94325.81;;;25.78;54.04
31337;BME280;22846;42.654;23.314;2023-06-14T08:03:12;94348.94;;;25.86;55.08
31337;BME280;22846;42.654;23.314;2023-06-14T08:05:37;94349.84;;;25.92;55.95
31337;BME280;22846;42.654;23.314;2023-06-14T08:08:03;94359.00;;;25.98;56.59
31337;BME280;22846;42.654;23.314;2023-06-14T08:10:29;94366.63;;;26.03;56.77
31337;BME280;22846;42.654;23.314;2023-06-14T08:12:54;94366.31;;;26.10;56.89
31337;BME280;22846;42.654;23.314;2023-06-14T08:15:19;94376.66;;;26.15;56.86
31337;BME280;22846;42.654;23.314;2023-06-14T08:17:45;94376.09;;;26.20;57.25
31337;BME280;22846;42.654;23.314;2023-06-14T08:20:12;94366.50;;;26.25;57.09
31337;BME280;22846;42.654;23.314;2023-06-14T08:22:38;94373.34;;;26.29;56.80
31337;BME280;22846;42.654;23.314;2023-06-14T08:25:05;94369.69;;;26.32;56.78
31337;BME280;22846;42.654;23.314;2023-06-14T08:27:30;94369.53;;;26.36;57.29
31337;BME280;22846;42.654;23.314;2023-06-14T08:29:56;94370.94;;;26.40;56.74
31337;BME280;22846;42.654;23.314;2023-06-14T08:32:22;94376.72;;;26.42;57.03
31337;BME280;22846;42.654;23.314;2023-06-14T08:34:47;94373.84;;;26.46;56.83
31337;BME280;22846;42.654;23.314;2023-06-14T08:37:13;94373.41;;;26.47;56.42
31337;BME280;22846;42.654;23.314;2023-06-14T08:39:38;94377.94;;;26.50;56.82
31337;BME280;22846;42.654;23.314;2023-06-14T08:42:05;94376.72;;;26.51;56.73
31337;BME280;22846;42.654;23.314;2023-06-14T08:44:33;94373.25;;;26.50;56.80
31337;BME280;22846;42.654;23.314;2023-06-14T08:46:59;94371.09;;;26.54;56.76
31337;BME280;22846;42.654;23.314;2023-06-14T08:49:26;94363.19;;;26.56;57.03
31337;BME280;22846;42.654;23.314;2023-06-14T08:51:59;94363.94;;;26.57;56.91
31337;BME280;22846;42.654;23.314;2023-06-14T08:54:28;94357.25;;;26.58;56.83
31337;BME280;22846;42.654;23.314;2023-06-14T08:56:57;94351.16;;;26.63;56.81
31337;BME280;22846;42.654;23.314;2023-06-14T08:59:26;94363.34;;;26.62;57.03
31337;BME280;22846;42.654;23.314;2023-06-14T09:01:52;94358.31;;;26.60;57.02
31337;BME280;22846;42.654;23.314;2023-06-14T09:04:22;94362.56;;;26.61;57.20
31337;BME280;22846;42.654;23.314;2023-06-14T09:06:49;94358.59;;;26.62;56.95
31337;BME280;22846;42.654;23.314;2023-06-14T09:09:20;94357.84;;;26.62;56.89
31337;BME280;22846;42.654;23.314;2023-06-14T09:11:45;94356.66;;;26.63;56.93
31337;BME280;22846;42.654;23.314;2023-06-14T09:14:11;94351.75;;;26.67;57.09
31337;BME280;22846;42.654;23.314;2023-06-14T09:16:36;94349.78;;;26.67;57.26
31337;BME280;22846;42.654;23.314;2023-06-14T09:19:02;94349.31;;;26.69;56.78
31337;BME280;22846;42.654;23.314;2023-06-14T09:21:27;94358.31;;;26.69;57.20
31337;BME280;22846;42.654;23.314;2023-06-14T09:23:53;94353.91;;;26.72;56.99
31337;BME280;22846;42.654;23.314;2023-06-14T09:26:19;94352.06;;;26.69;54.24
31337;BME280;22846;42.654;23.314;2023-06-14T09:28:46;94345.84;;;26.68;53.42
31337;BME280;22846;42.654;23.314;2023-06-14T09:31:17;94350.53;;;26.68;53.85
31337;BME280;22846;42.654;23.314;2023-06-14T09:33:44;94349.78;;;26.67;54.19
31337;BME280;22846;42.654;23.314;2023-06-14T09:36:22;94348.25;;;26.66;55.08
31337;BME280;22846;42.654;23.314;2023-06-14T09:41:32;94340.34;;;26.68;55.46
31337;BME280;22846;42.654;23.314;2023-06-14T09:44:02;94338.66;;;26.71;55.18
31337;BME280;22846;42.654;23.314;2023-06-14T09:46:28;94335.91;;;26.71;55.02
31337;BME280;22846;42.654;23.314;2023-06-14T09:48:57;94336.97;;;26.73;55.32
31337;BME280;22846;42.654;23.314;2023-06-14T09:51:23;94340.50;;;26.74;55.57
31337;BME280;22846;42.654;23.314;2023-06-14T09:53:50;94340.78;;;26.76;55.74
31337;BME280;22846;42.654;23.314;2023-06-14T09:56:22;94338.03;;;26.76;55.59
31337;BME280;22846;42.654;23.314;2023-06-14T09:58:48;94333.47;;;26.82;56.04
31337;BME280;22846;42.654;23.314;2023-06-14T10:01:15;94319.47;;;26.80;56.22
31337;BME280;22846;42.654;23.314;2023-06-14T10:03:44;94317.63;;;26.77;56.34
31337;BME280;22846;42.654;23.314;2023-06-14T10:06:10;94321.72;;;26.81;56.21
31337;BME280;22846;42.654;23.314;2023-06-14T10:08:36;94308.31;;;26.83;56.46
31337;BME280;22846;42.654;23.314;2023-06-14T10:11:03;94320.03;;;26.84;56.51
31337;BME280;22846;42.654;23.314;2023-06-14T10:13:31;94319.59;;;26.85;56.57
31337;BME280;22846;42.654;23.314;2023-06-14T10:16:07;94306.63;;;26.86;56.45
31337;BME280;22846;42.654;23.314;2023-06-14T10:18:57;94304.94;;;26.88;56.48
31337;BME280;22846;42.654;23.314;2023-06-14T10:24:05;94296.28;;;26.90;56.58
31337;BME280;22846;42.654;23.314;2023-06-14T10:26:32;94299.31;;;26.92;56.39
31337;BME280;22846;42.654;23.314;2023-06-14T10:29:07;94308.78;;;26.91;56.41
31337;BME280;22846;42.654;23.314;2023-06-14T10:31:56;94306.03;;;26.91;56.75
31337;BME280;22846;42.654;23.314;2023-06-14T10:34:23;94311.78;;;26.93;56.79
31337;BME280;22846;42.654;23.314;2023-06-14T10:37:13;94299.31;;;26.92;56.73
31337;BME280;22846;42.654;23.314;2023-06-14T10:39:43;94297.81;;;26.91;56.75
31337;BME280;22846;42.654;23.314;2023-06-14T10:42:11;94297.16;;;26.96;56.60
31337;BME280;22846;42.654;23.314;2023-06-14T10:47:20;94291.38;;;26.94;56.83
31337;BME280;22846;42.654;23.314;2023-06-14T10:49:50;94296.69;;;26.97;56.64
31337;BME280;22846;42.654;23.314;2023-06-14T10:52:17;94297.00;;;26.99;56.35
31337;BME280;22846;42.654;23.314;2023-06-14T10:55:15;94293.53;;;26.99;51.95
31337;BME280;22846;42.654;23.314;2023-06-14T11:00:18;94274.66;;;26.83;50.96
31337;BME280;22846;42.654;23.314;2023-06-14T11:05:26;94267.38;;;26.80;50.73
31337;BME280;22846;42.654;23.314;2023-06-14T11:10:41;94261.09;;;26.79;48.68
31337;BME280;22846;42.654;23.314;2023-06-14T11:13:07;94258.34;;;26.79;49.85
31337;BME280;22846;42.654;23.314;2023-06-14T11:15:36;94255.63;;;26.79;48.06
31337;BME280;22846;42.654;23.314;2023-06-14T11:18:05;94258.53;;;26.76;49.02
31337;BME280;22846;42.654;23.314;2023-06-14T11:20:33;94271.63;;;26.81;49.20
31337;BME280;22846;42.654;23.314;2023-06-14T11:22:58;94257.91;;;26.81;49.47
31337;BME280;22846;42.654;23.314;2023-06-14T11:25:24;94258.34;;;26.79;49.80
31337;BME280;22846;42.654;23.314;2023-06-14T11:27:50;94247.88;;;26.78;49.28
31337;BME280;22846;42.654;23.314;2023-06-14T11:30:17;94253.66;;;26.80;48.53
31337;BME280;22846;42.654;23.314;2023-06-14T11:32:45;94249.38;;;26.79;47.50
31337;BME280;22846;42.654;23.314;2023-06-14T11:35:11;94257.63;;;26.79;47.60
31337;BME280;22846;42.654;23.314;2023-06-14T11:37:38;94249.09;;;26.77;50.10
31337;BME280;22846;42.654;23.314;2023-06-14T11:40:04;94253.97;;;26.82;50.07
31337;BME280;22846;42.654;23.314;2023-06-14T11:42:35;94244.03;;;26.84;50.59
31337;BME280;22846;42.654;23.314;2023-06-14T11:45:00;94251.06;;;26.85;50.94
31337;BME280;22846;42.654;23.314;2023-06-14T11:47:37;94240.53;;;26.84;50.80
31337;BME280;22846;42.654;23.314;2023-06-14T11:50:05;94233.81;;;26.85;50.96
31337;BME280;22846;42.654;23.314;2023-06-14T11:52:31;94232.91;;;26.88;50.99
31337;BME280;22846;42.654;23.314;2023-06-14T11:54:57;94228.94;;;26.89;51.00
31337;BME280;22846;42.654;23.314;2023-06-14T11:57:24;94223.47;;;26.89;50.97
31337;BME280;22846;42.654;23.314;2023-06-14T11:59:50;94221.03;;;26.91;51.26
31337;BME280;22846;42.654;23.314;2023-06-14T12:02:16;94223.28;;;26.92;51.32
31337;BME280;22846;42.654;23.314;2023-06-14T12:04:43;94217.03;;;26.92;51.03
31337;BME280;22846;42.654;23.314;2023-06-14T12:07:12;94213.06;;;26.93;51.48
31337;BME280;22846;42.654;23.314;2023-06-14T12:12:24;94208.19;;;26.97;51.75
31337;BME280;22846;42.654;23.314;2023-06-14T12:14:51;94201.19;;;26.96;51.65
31337;BME280;22846;42.654;23.314;2023-06-14T12:17:17;94205.63;;;26.93;51.97
31337;BME280;22846;42.654;23.314;2023-06-14T12:19:44;94204.69;;;26.96;51.98
31337;BME280;22846;42.654;23.314;2023-06-14T12:22:10;94195.09;;;26.92;52.19
31337;BME280;22846;42.654;23.314;2023-06-14T12:24:36;94199.34;;;26.93;52.16
31337;BME280;22846;42.654;23.314;2023-06-14T12:27:03;94203.19;;;26.95;51.94
31337;BME280;22846;42.654;23.314;2023-06-14T12:29:29;94198.91;;;26.94;52.22
31337;BME280;22846;42.654;23.314;2023-06-14T12:31:55;94198.13;;;26.94;52.16
31337;BME280;22846;42.654;23.314;2023-06-14T12:34:24;94188.69;;;26.95;52.11
31337;BME280;22846;42.654;23.314;2023-06-14T12:36:52;94190.22;;;26.96;52.10
31337;BME280;22846;42.654;23.314;2023-06-14T12:39:18;94188.53;;;26.98;52.17
31337;BME280;22846;42.654;23.314;2023-06-14T12:41:44;94183.81;;;26.99;51.96
31337;BME280;22846;42.654;23.314;2023-06-14T12:44:12;94174.50;;;26.96;52.11
31337;BME280;22846;42.654;23.314;2023-06-14T12:46:39;94192.03;;;26.99;52.36
31337;BME280;22846;42.654;23.314;2023-06-14T12:49:07;94181.25;;;26.95;52.18
31337;BME280;22846;42.654;23.314;2023-06-14T12:51:32;94181.50;;;26.97;52.45
31337;BME280;22846;42.654;23.314;2023-06-14T12:53:58;94170.53;;;26.97;52.47
31337;BME280;22846;42.654;23.314;2023-06-14T12:56:23;94170.53;;;26.97;52.40
31337;BME280;22846;42.654;23.314;2023-06-14T12:58:49;94161.88;;;26.99;52.41
31337;BME280;22846;42.654;23.314;2023-06-14T13:01:15;94173.59;;;26.99;52.39
31337;BME280;22846;42.654;23.314;2023-06-14T13:03:40;94185.78;;;26.98;52.15
31337;BME280;22846;42.654;23.314;2023-06-14T13:06:05;94175.59;;;26.99;52.42
31337;BME280;22846;42.654;23.314;2023-06-14T13:08:31;94178.31;;;26.99;52.38
31337;BME280;22846;42.654;23.314;2023-06-14T13:10:56;94172.84;;;26.99;52.70